Time;durP1;ratioP1;P1;durP2;ratioP2;P2;SDS_P1;SDS_P2;PMS_P1;PMS_P2;Temp;Humidity;BMP_temperature;BMP_pressure;BME280_temperature;BME280_humidity;BME280_pressure;Samples;Min_cycle;Max_cycle;Signal;HPM_P1;HPM_P2
2023/10/12 00:01:27;;;;;;;5.35;2.28;;;24.40;44.70;;;;;;5130641;27;45401;-70
2023/10/12 00:03:58;;;;;;;4.82;2.80;;;24.40;44.80;;;;;;5130251;27;45298;-70
2023/10/12 00:06:29;;;;;;;3.45;2.30;;;24.40;44.80;;;;;;5130201;27;45341;-70
2023/10/12 00:08:57;;;;;;;7.65;2.72;;;24.40;44.80;;;;;;5130523;27;45232;-70
2023/10/12 00:11:37;;;;;;;2.72;2.20;;;24.40;44.80;;;;;;5130625;27;45341;-70
2023/10/12 00:14:05;;;;;;;4.63;2.22;;;24.30;44.80;;;;;;5130025;27;45633;-70
2023/10/12 00:16:35;;;;;;;3.25;2.25;;;24.30;44.80;;;;;;5129875;27;45515;-70
2023/10/12 00:19:02;;;;;;;4.63;2.30;;;24.30;44.80;;;;;;5130233;27;45262;-70
2023/10/12 00:21:35;;;;;;;3.45;2.35;;;24.30;44.80;;;;;;5130416;27;45272;-71
2023/10/12 00:24:06;;;;;;;7.32;2.70;;;24.30;44.90;;;;;;5129814;27;46403;-71
2023/10/12 00:26:33;;;;;;;4.03;2.35;;;24.30;44.90;;;;;;5129845;27;45503;-71
2023/10/12 00:29:00;;;;;;;5.68;2.53;;;24.20;44.90;;;;;;5130325;27;45556;-70
2023/10/12 00:31:29;;;;;;;3.17;2.25;;;24.20;45.00;;;;;;5130082;27;45313;-71
2023/10/12 00:33:57;;;;;;;3.75;2.40;;;24.20;45.00;;;;;;5129717;27;46699;-71
2023/10/12 00:36:24;;;;;;;6.60;2.33;;;24.20;45.00;;;;;;5129607;27;45244;-70
2023/10/12 00:38:52;;;;;;;3.58;3.08;;;24.20;45.00;;;;;;5129680;27;45454;-70
2023/10/12 00:41:24;;;;;;;4.10;2.65;;;24.20;45.00;;;;;;5129876;27;45556;-69
2023/10/12 00:43:53;;;;;;;3.70;2.28;;;24.20;44.90;;;;;;5128790;27;46394;-70
2023/10/12 00:46:39;;;;;;;3.53;2.35;;;24.20;44.90;;;;;;5128787;27;45340;-70
2023/10/12 00:51:52;;;;;;;3.33;2.33;;;24.10;45.00;;;;;;5129668;27;45338;-70
2023/10/12 00:54:27;;;;;;;2.80;2.10;;;24.10;45.00;;;;;;5129370;27;46333;-70
2023/10/12 00:57:01;;;;;;;4.60;2.17;;;24.10;45.10;;;;;;5129132;27;45465;-70
2023/10/12 00:59:31;;;;;;;3.78;2.53;;;24.10;45.20;;;;;;5129418;27;45280;-69
2023/10/12 01:01:58;;;;;;;3.78;2.33;;;24.10;45.20;;;;;;5128835;27;45402;-69
2023/10/12 01:04:25;;;;;;;4.57;2.40;;;24.10;45.20;;;;;;5128873;27;45280;-69
2023/10/12 01:06:52;;;;;;;3.58;2.30;;;24.10;45.20;;;;;;5128975;27;45457;-71
2023/10/12 01:09:19;;;;;;;3.25;2.22;;;24.00;45.20;;;;;;5129301;27;45305;-71
2023/10/12 01:11:53;;;;;;;4.72;1.98;;;24.00;45.30;;;;;;5129489;27;45461;-71
2023/10/12 01:14:26;;;;;;;4.45;2.40;;;24.00;45.30;;;;;;5129013;27;45298;-70
2023/10/12 01:16:58;;;;;;;3.53;2.30;;;24.00;45.30;;;;;;5128574;27;45397;-71
2023/10/12 01:19:30;;;;;;;2.80;2.30;;;24.00;45.30;;;;;;5128997;27;45264;-71
2023/10/12 01:22:12;;;;;;;4.00;2.10;;;24.00;45.30;;;;;;5129323;27;45631;-71
2023/10/12 01:24:44;;;;;;;4.15;2.58;;;24.00;45.40;;;;;;5128938;27;45473;-71
2023/10/12 01:27:14;;;;;;;2.95;2.10;;;23.90;45.30;;;;;;5129093;27;45250;-70
2023/10/12 01:29:41;;;;;;;3.78;2.17;;;23.90;45.30;;;;;;5129044;27;45378;-71
2023/10/12 01:34:55;;;;;;;5.25;2.20;;;23.90;45.40;;;;;;5118360;27;46088;-70
2023/10/12 01:37:25;;;;;;;3.42;1.98;;;23.80;45.40;;;;;;5130369;27;45190;-71
2023/10/12 01:40:10;;;;;;;4.10;2.15;;;23.80;45.40;;;;;;5128812;27;45386;-71
2023/10/12 01:42:49;;;;;;;2.78;1.98;;;23.80;45.40;;;;;;5128996;27;45385;-71
2023/10/12 01:45:18;;;;;;;3.28;2.30;;;23.80;45.40;;;;;;5128301;27;45321;-71
2023/10/12 01:47:50;;;;;;;3.78;2.53;;;23.80;45.50;;;;;;5128531;27;45287;-71
2023/10/12 01:50:17;;;;;;;2.70;1.83;;;23.80;45.50;;;;;;5128733;27;45215;-71
2023/10/12 01:52:47;;;;;;;3.45;2.25;;;23.80;45.50;;;;;;5128791;27;45258;-71
2023/10/12 01:55:30;;;;;;;2.28;1.75;;;23.70;45.40;;;;;;5128615;27;46425;-69
2023/10/12 01:57:57;;;;;;;2.00;1.80;;;23.80;45.50;;;;;;5128476;27;45446;-69
2023/10/12 02:00:28;;;;;;;2.67;2.25;;;23.80;46.10;;;;;;5128586;27;45298;-69
2023/10/12 02:03:12;;;;;;;2.30;2.10;;;23.80;45.50;;;;;;5128662;27;45376;-69
2023/10/12 02:05:46;;;;;;;3.38;2.42;;;23.70;45.40;;;;;;5128052;27;46948;-69
2023/10/12 02:08:16;;;;;;;2.25;2.00;;;23.70;45.50;;;;;;5128311;27;45325;-70
2023/10/12 02:10:58;;;;;;;2.28;1.90;;;23.70;45.50;;;;;;5128298;27;45290;-71
2023/10/12 02:13:25;;;;;;;3.10;2.33;;;23.70;45.60;;;;;;5128623;27;45409;-69
2023/10/12 02:15:52;;;;;;;4.22;2.00;;;23.60;45.60;;;;;;5125198;27;46295;-69
2023/10/12 02:18:19;;;;;;;4.03;1.70;;;23.60;45.60;;;;;;5127849;27;45333;-71
2023/10/12 02:21:06;;;;;;;3.05;2.05;;;23.60;46.20;;;;;;5128244;27;45287;-70
2023/10/12 02:23:39;;;;;;;3.67;2.30;;;23.60;45.70;;;;;;5128596;27;45554;-70
2023/10/12 02:26:28;;;;;;;4.78;2.42;;;23.60;45.70;;;;;;5127625;27;45442;-70
2023/10/12 02:29:00;;;;;;;2.17;1.98;;;23.60;45.60;;;;;;5127500;27;45402;-71
2023/10/12 02:31:28;;;;;;;2.60;2.08;;;23.60;45.70;;;;;;5127806;27;45408;-70
2023/10/12 02:33:55;;;;;;;5.65;2.20;;;23.60;45.70;;;;;;5128136;27;45398;-70
2023/10/12 02:36:26;;;;;;;3.50;2.05;;;23.60;45.70;;;;;;5127503;27;45391;-71
2023/10/12 02:38:55;;;;;;;2.78;1.88;;;23.60;45.70;;;;;;5127832;27;45304;-71
2023/10/12 02:41:24;;;;;;;4.10;1.95;;;23.60;45.70;;;;;;5127815;27;45419;-70
2023/10/12 02:43:55;;;;;;;2.72;1.92;;;23.60;45.60;;;;;;5127971;27;45669;-71
2023/10/12 02:46:23;;;;;;;2.70;2.05;;;23.60;45.70;;;;;;5127573;27;46701;-71
2023/10/12 02:48:50;;;;;;;4.18;2.10;;;23.60;45.60;;;;;;5127552;27;45328;-70
2023/10/12 02:51:18;;;;;;;2.17;1.90;;;23.60;45.60;;;;;;5127605;27;45313;-70
2023/10/12 02:53:47;;;;;;;3.35;2.28;;;23.50;45.60;;;;;;5127990;27;45303;-69
2023/10/12 02:56:21;;;;;;;3.13;1.67;;;23.50;45.60;;;;;;5127051;27;46536;-70
2023/10/12 02:58:48;;;;;;;3.38;2.30;;;23.50;45.60;;;;;;5126665;27;45249;-70
2023/10/12 03:01:19;;;;;;;3.13;2.10;;;23.50;45.70;;;;;;5127441;27;45294;-71
2023/10/12 03:03:48;;;;;;;6.13;2.22;;;23.50;45.60;;;;;;5127766;27;45388;-70
2023/10/12 03:06:21;;;;;;;4.38;2.35;;;23.50;45.70;;;;;;5129619;27;45293;-71
2023/10/12 03:09:02;;;;;;;2.30;2.03;;;23.50;45.70;;;;;;5131187;27;45363;-71
2023/10/12 03:11:31;;;;;;;4.72;2.60;;;23.50;45.60;;;;;;5131155;27;45313;-71
2023/10/12 03:14:00;;;;;;;4.18;2.03;;;23.50;45.70;;;;;;5131467;27;45301;-70
2023/10/12 03:16:33;;;;;;;3.15;2.25;;;23.50;45.70;;;;;;5130696;27;45436;-71
2023/10/12 03:19:00;;;;;;;3.67;2.33;;;23.50;45.70;;;;;;5130847;27;45240;-71
2023/10/12 03:21:33;;;;;;;4.43;2.00;;;23.50;45.60;;;;;;5131158;27;45264;-71
2023/10/12 03:24:02;;;;;;;5.93;2.15;;;23.50;45.70;;;;;;5131188;27;45192;-71
2023/10/12 03:26:33;;;;;;;3.75;2.05;;;23.50;45.70;;;;;;5130440;27;45365;-70
2023/10/12 03:29:09;;;;;;;2.22;2.00;;;23.50;45.70;;;;;;5130689;27;45273;-70
2023/10/12 03:31:41;;;;;;;2.85;2.08;;;23.40;45.60;;;;;;5130831;27;45255;-71
2023/10/12 03:34:35;;;;;;;3.60;2.20;;;23.40;45.60;;;;;;5130890;27;45502;-69
2023/10/12 03:36:58;;;;;;;2.33;1.70;;;23.40;45.60;;;;;;5130123;27;45418;-70
2023/10/12 03:39:27;;;;;;;2.95;2.28;;;23.40;45.60;;;;;;5130693;27;45350;-71
2023/10/12 03:41:55;;;;;;;3.70;2.00;;;23.40;45.60;;;;;;5130799;27;45377;-71
2023/10/12 03:44:33;;;;;;;5.50;2.20;;;23.40;45.60;;;;;;5130855;27;45390;-71
2023/10/12 03:47:04;;;;;;;2.72;1.70;;;23.40;45.60;;;;;;5130402;27;45466;-71
2023/10/12 03:49:39;;;;;;;2.58;1.95;;;23.40;46.20;;;;;;5130341;27;45289;-71
2023/10/12 03:52:13;;;;;;;1.95;1.80;;;23.40;45.60;;;;;;5130277;27;45318;-71
2023/10/12 03:54:55;;;;;;;3.53;2.17;;;23.40;45.70;;;;;;5130752;27;45275;-71
2023/10/12 03:57:35;;;;;;;3.03;2.10;;;23.40;45.70;;;;;;5130337;27;45514;-70
2023/10/12 04:00:25;;;;;;;3.83;1.90;;;23.30;45.50;;;;;;5130265;27;46398;-71
2023/10/12 04:02:58;;;;;;;2.40;1.90;;;23.30;45.60;;;;;;5130264;27;45349;-70
2023/10/12 04:05:44;;;;;;;4.20;2.20;;;23.30;45.60;;;;;;5130320;27;45414;-70
2023/10/12 04:14:20;;;;;;;2.55;1.98;;;23.30;45.70;;;;;;5065786;28;45439;-70
2023/10/12 04:16:56;;;;;;;2.85;1.85;;;23.30;45.60;;;;;;5123947;27;45348;-70
2023/10/12 04:19:29;;;;;;;3.63;2.38;;;23.30;45.70;;;;;;5129878;27;45798;-70
2023/10/12 04:22:07;;;;;;;2.40;1.90;;;23.30;45.70;;;;;;5129749;27;45358;-71
2023/10/12 04:24:45;;;;;;;2.42;2.05;;;23.30;45.70;;;;;;5129947;27;45364;-71
2023/10/12 04:27:38;;;;;;;2.00;1.60;;;23.30;45.70;;;;;;5130154;27;45547;-71
2023/10/12 04:30:20;;;;;;;1.70;1.60;;;23.30;45.70;;;;;;5129591;27;45442;-70
2023/10/12 04:32:57;;;;;;;3.15;2.08;;;23.30;45.70;;;;;;5129569;27;45374;-71
2023/10/12 04:35:44;;;;;;;2.35;1.73;;;23.20;45.60;;;;;;5129708;27;45475;-71
2023/10/12 04:38:23;;;;;;;3.78;2.00;;;23.20;45.70;;;;;;5130061;27;45421;-70
2023/10/12 04:43:31;;;;;;;2.13;1.80;;;23.20;45.70;;;;;;5129251;27;45579;-70
2023/10/12 04:46:26;;;;;;;2.17;2.03;;;23.20;45.70;;;;;;5129558;27;45244;-71
2023/10/12 04:49:01;;;;;;;2.08;1.88;;;23.20;45.80;;;;;;5129866;27;45309;-71
2023/10/12 04:51:30;;;;;;;3.72;1.90;;;23.20;45.70;;;;;;5129424;27;45248;-70
2023/10/12 04:54:04;;;;;;;2.53;1.70;;;23.20;45.80;;;;;;5129404;27;45256;-71
2023/10/12 04:56:36;;;;;;;3.35;2.10;;;23.20;45.80;;;;;;5129532;27;45383;-71
2023/10/12 04:59:17;;;;;;;3.33;1.80;;;23.20;45.80;;;;;;5129337;27;45364;-70
2023/10/12 05:02:13;;;;;;;3.08;2.45;;;23.20;45.80;;;;;;5129312;27;46404;-71
2023/10/12 05:05:14;;;;;;;2.53;1.92;;;23.20;45.80;;;;;;5128834;27;45329;-71
2023/10/12 05:07:27;;;;;;;1.70;1.60;;;23.20;45.80;;;;;;5129126;27;45264;-70
2023/10/12 05:09:54;;;;;;;2.20;1.92;;;23.10;45.80;;;;;;5129446;27;45173;-71
2023/10/12 05:12:23;;;;;;;2.13;1.60;;;23.10;45.80;;;;;;5128893;27;45375;-70
2023/10/12 05:14:55;;;;;;;2.33;1.77;;;23.10;45.80;;;;;;5129183;27;45455;-72
2023/10/12 05:17:23;;;;;;;2.28;1.98;;;23.10;45.80;;;;;;5129024;27;45376;-71
2023/10/12 05:19:52;;;;;;;2.83;2.00;;;23.10;45.70;;;;;;5129267;27;45456;-71
2023/10/12 05:22:19;;;;;;;3.75;2.20;;;23.10;45.80;;;;;;5128729;27;45350;-71
2023/10/12 05:24:47;;;;;;;1.92;1.83;;;23.10;45.70;;;;;;5128720;27;45402;-71
2023/10/12 05:27:23;;;;;;;2.05;1.80;;;23.10;45.80;;;;;;5128946;27;45304;-71
2023/10/12 05:29:52;;;;;;;2.05;1.80;;;23.10;45.80;;;;;;5129057;27;45497;-71
2023/10/12 05:32:24;;;;;;;2.90;1.90;;;23.00;45.80;;;;;;5128317;27;45537;-71
2023/10/12 05:34:52;;;;;;;2.03;1.80;;;23.00;46.40;;;;;;5128580;27;45294;-70
2023/10/12 05:37:26;;;;;;;2.78;1.77;;;23.00;45.70;;;;;;5128950;27;45191;-71
2023/10/12 05:39:55;;;;;;;1.80;1.70;;;23.00;45.70;;;;;;5129029;27;45410;-71
2023/10/12 05:42:22;;;;;;;2.10;1.60;;;23.00;45.70;;;;;;5127898;27;46299;-70
2023/10/12 05:44:50;;;;;;;2.13;1.85;;;23.00;45.80;;;;;;5128011;27;45366;-71
2023/10/12 05:47:17;;;;;;;2.70;1.77;;;23.00;45.80;;;;;;5128677;27;45415;-71
2023/10/12 05:49:45;;;;;;;3.10;1.63;;;23.00;45.80;;;;;;5129000;27;45113;-71
2023/10/12 05:52:13;;;;;;;2.15;1.90;;;23.00;45.80;;;;;;5128417;27;45331;-71
2023/10/12 05:54:40;;;;;;;3.15;1.77;;;23.00;45.80;;;;;;5128444;27;45528;-70
2023/10/12 05:57:18;;;;;;;2.50;1.60;;;23.00;46.40;;;;;;5128443;27;45310;-71
2023/10/12 05:59:45;;;;;;;2.33;1.98;;;22.90;45.70;;;;;;5128767;27;45564;-70
2023/10/12 06:02:13;;;;;;;2.97;2.10;;;23.00;46.50;;;;;;5128273;27;46454;-71
2023/10/12 06:04:41;;;;;;;1.95;1.80;;;23.00;45.80;;;;;;5128302;27;45328;-71
2023/10/12 06:07:08;;;;;;;1.70;1.60;;;23.00;45.80;;;;;;5128297;27;45400;-71
2023/10/12 06:09:37;;;;;;;2.33;2.00;;;23.00;45.80;;;;;;5128659;27;45133;-70
2023/10/12 06:12:06;;;;;;;2.65;2.20;;;23.00;45.80;;;;;;5128207;27;45473;-71
2023/10/12 06:14:33;;;;;;;1.77;1.67;;;23.00;46.40;;;;;;5128208;27;45353;-70
2023/10/12 06:17:02;;;;;;;3.13;1.80;;;23.00;45.80;;;;;;5128157;27;45365;-70
2023/10/12 06:19:34;;;;;;;3.20;2.00;;;22.90;45.70;;;;;;5128659;27;45476;-70
2023/10/12 06:22:13;;;;;;;2.78;1.80;;;22.90;45.80;;;;;;5128655;27;48098;-71
2023/10/12 06:24:44;;;;;;;3.58;1.95;;;22.90;45.80;;;;;;5128138;27;45482;-70
2023/10/12 06:27:23;;;;;;;2.08;1.63;;;22.90;45.80;;;;;;5128104;27;45309;-71
2023/10/12 06:29:51;;;;;;;2.22;1.90;;;22.90;45.80;;;;;;5128446;27;45433;-71
2023/10/12 06:32:20;;;;;;;2.60;1.95;;;22.90;45.80;;;;;;5127610;27;45726;-72
2023/10/12 06:35:02;;;;;;;2.22;1.95;;;22.90;45.70;;;;;;5128047;27;45359;-71
2023/10/12 06:37:49;;;;;;;2.10;1.60;;;22.90;45.70;;;;;;5127967;27;45148;-71
2023/10/12 06:45:48;;;;;;;2.70;1.90;;;22.90;45.70;;;;;;5127023;27;45339;-70
2023/10/12 06:48:23;;;;;;;3.50;1.88;;;22.90;45.70;;;;;;5128041;27;45393;-70
2023/10/12 06:51:01;;;;;;;3.13;1.83;;;22.90;46.20;;;;;;5128077;27;45647;-71
2023/10/12 06:53:33;;;;;;;3.13;1.80;;;23.00;45.60;;;;;;5127480;27;45345;-70
2023/10/12 06:56:16;;;;;;;2.33;2.08;;;22.90;45.60;;;;;;5127506;27;45251;-71
2023/10/12 06:58:43;;;;;;;2.58;1.80;;;22.90;45.60;;;;;;5127705;27;45383;-70
2023/10/12 07:01:18;;;;;;;3.10;1.98;;;23.00;45.60;;;;;;5127948;27;45361;-70
2023/10/12 07:03:47;;;;;;;3.72;1.80;;;23.00;45.60;;;;;;5127992;27;45369;-70
2023/10/12 07:06:14;;;;;;;1.67;1.58;;;23.00;45.60;;;;;;5127598;27;45325;-71
2023/10/12 07:08:42;;;;;;;1.92;1.73;;;23.00;45.60;;;;;;5127740;27;45154;-71
2023/10/12 07:11:11;;;;;;;1.67;1.58;;;22.90;45.50;;;;;;5127918;27;45367;-71
2023/10/12 07:13:40;;;;;;;1.88;1.73;;;23.00;45.60;;;;;;5127499;27;46751;-70
2023/10/12 07:16:08;;;;;;;2.60;1.75;;;23.00;45.60;;;;;;5127332;27;45305;-70
2023/10/12 07:18:35;;;;;;;3.75;1.60;;;23.00;45.50;;;;;;5127232;27;45385;-71
2023/10/12 07:21:06;;;;;;;4.00;1.80;;;23.00;45.50;;;;;;5127064;27;45670;-71
2023/10/12 07:23:35;;;;;;;2.70;1.90;;;23.00;45.50;;;;;;5126469;27;46671;-70
2023/10/12 07:26:12;;;;;;;2.40;1.80;;;23.00;45.50;;;;;;5126913;27;45270;-71
2023/10/12 07:28:41;;;;;;;3.25;2.10;;;23.00;45.40;;;;;;5127344;27;45234;-70
2023/10/12 07:34:02;;;;;;;2.95;1.67;;;23.10;45.50;;;;;;5120900;27;45985;-71
2023/10/12 07:36:52;;;;;;;2.67;2.10;;;23.10;45.40;;;;;;5126499;27;45474;-70
2023/10/12 07:39:20;;;;;;;2.20;2.00;;;23.10;45.40;;;;;;5127078;27;45331;-70
2023/10/12 07:41:59;;;;;;;2.80;1.80;;;23.20;45.40;;;;;;5126854;27;45590;-70
2023/10/12 07:44:28;;;;;;;3.03;1.80;;;23.20;45.30;;;;;;5127080;27;45368;-70
2023/10/12 07:46:56;;;;;;;5.38;2.00;;;23.20;45.30;;;;;;5126174;27;45491;-70
2023/10/12 07:49:30;;;;;;;2.85;1.70;;;23.20;45.30;;;;;;5126979;27;45382;-70
2023/10/12 07:52:07;;;;;;;2.33;2.10;;;23.30;45.30;;;;;;5127205;27;45256;-70
2023/10/12 07:54:55;;;;;;;2.65;2.15;;;23.20;45.20;;;;;;5130341;27;45350;-71
2023/10/12 07:57:24;;;;;;;6.55;2.67;;;23.30;45.30;;;;;;5129740;27;45418;-71
2023/10/12 07:59:59;;;;;;;6.22;2.13;;;23.30;45.30;;;;;;5129681;27;45335;-71
2023/10/12 08:02:42;;;;;;;2.47;1.73;;;23.30;45.30;;;;;;5130078;27;45446;-71
2023/10/12 08:05:16;;;;;;;3.92;2.13;;;23.30;45.30;;;;;;5129466;27;46490;-69
2023/10/12 08:07:59;;;;;;;2.90;2.17;;;23.30;45.30;;;;;;5125109;27;45390;-72
2023/10/12 08:10:30;;;;;;;4.97;2.17;;;23.30;45.30;;;;;;5121388;27;45332;-70
2023/10/12 08:12:58;;;;;;;2.70;1.90;;;23.40;45.30;;;;;;5115282;27;45311;-69
2023/10/12 08:15:49;;;;;;;5.22;2.17;;;23.40;45.20;;;;;;5109053;27;45362;-70
2023/10/12 08:18:53;;;;;;;3.30;2.20;;;23.40;45.20;;;;;;5109328;27;45268;-71
2023/10/12 08:21:00;;;;;;;5.35;2.42;;;23.40;45.20;;;;;;5109637;27;45227;-70
2023/10/12 08:23:27;;;;;;;3.33;1.83;;;23.50;45.20;;;;;;5109833;27;45202;-70
2023/10/12 08:25:57;;;;;;;3.58;2.25;;;23.50;45.10;;;;;;5108550;27;45515;-70
2023/10/12 08:28:26;;;;;;;3.83;2.28;;;23.50;45.10;;;;;;5109041;27;45131;-70
2023/10/12 08:31:00;;;;;;;4.40;2.45;;;23.50;45.00;;;;;;5109588;27;45336;-70
2023/10/12 08:36:29;;;;;;;3.20;2.38;;;23.60;45.00;;;;;;5109099;27;45667;-71
2023/10/12 08:38:56;;;;;;;3.58;2.22;;;23.60;45.00;;;;;;5108864;27;45134;-69
2023/10/12 08:41:36;;;;;;;7.43;2.30;;;23.60;44.90;;;;;;5109086;27;45123;-70
2023/10/12 08:44:04;;;;;;;5.25;2.20;;;23.70;45.00;;;;;;5108983;27;45465;-71
2023/10/12 08:46:56;;;;;;;3.13;2.30;;;23.70;45.00;;;;;;5108991;27;45375;-71
2023/10/12 08:52:07;;;;;;;3.65;2.70;;;23.80;44.90;;;;;;5107083;27;45519;-70
2023/10/12 08:54:37;;;;;;;3.47;2.10;;;23.80;44.90;;;;;;5109528;27;45183;-70
2023/10/12 08:57:19;;;;;;;4.50;2.38;;;23.80;44.80;;;;;;5108347;27;47413;-70
2023/10/12 08:59:59;;;;;;;5.55;2.25;;;23.90;44.80;;;;;;5109222;27;45314;-71
2023/10/12 09:02:28;;;;;;;3.83;2.30;;;23.90;44.60;;;;;;5109114;27;45251;-72
2023/10/12 09:04:57;;;;;;;6.00;2.45;;;24.00;44.70;;;;;;5108868;27;45227;-71
2023/10/12 09:07:26;;;;;;;2.60;2.10;;;24.00;44.70;;;;;;5107990;27;45436;-71
2023/10/12 09:09:56;;;;;;;4.38;2.00;;;24.00;44.70;;;;;;5107849;27;45307;-71
2023/10/12 09:12:23;;;;;;;2.78;2.00;;;24.00;44.70;;;;;;5109342;27;45233;-71
2023/10/12 09:14:54;;;;;;;5.00;2.88;;;24.10;44.70;;;;;;5109333;27;45429;-72
2023/10/12 09:17:30;;;;;;;3.47;2.25;;;24.00;44.60;;;;;;5108665;27;45390;-70
2023/10/12 09:20:21;;;;;;;2.78;2.20;;;24.00;44.80;;;;;;5108787;27;45153;-71
2023/10/12 09:22:56;;;;;;;3.50;2.20;;;24.10;44.80;;;;;;5108574;27;44632;-71
2023/10/12 09:25:59;;;;;;;2.90;2.45;;;24.10;45.30;;;;;;5108868;27;45413;-69
2023/10/12 09:28:15;;;;;;;2.88;2.15;;;24.10;44.60;;;;;;5107536;27;45310;-68
2023/10/12 09:30:45;;;;;;;3.25;2.33;;;24.20;44.60;;;;;;5108214;27;45333;-68
2023/10/12 09:36:00;;;;;;;2.65;2.13;;;24.20;44.50;;;;;;5108256;27;45588;-69
2023/10/12 09:38:30;;;;;;;5.47;2.20;;;24.30;44.50;;;;;;5107809;27;45488;-68
2023/10/12 09:40:59;;;;;;;3.10;1.85;;;24.30;44.50;;;;;;5108023;27;45382;-68
2023/10/12 09:43:26;;;;;;;4.38;2.60;;;24.30;44.50;;;;;;5108075;27;45301;-69
2023/10/12 09:45:58;;;;;;;3.40;2.20;;;24.30;44.40;;;;;;5108196;27;45318;-68
2023/10/12 09:48:29;;;;;;;3.25;2.50;;;24.40;44.40;;;;;;5107690;27;46396;-69
2023/10/12 09:50:57;;;;;;;3.50;2.45;;;24.40;44.40;;;;;;5107870;27;45295;-69
2023/10/12 09:53:27;;;;;;;5.47;2.40;;;24.50;44.30;;;;;;5105363;27;45363;-69
2023/10/12 09:56:11;;;;;;;2.92;2.20;;;24.50;44.20;;;;;;5108220;27;45383;-69
2023/10/12 09:58:43;;;;;;;3.33;2.28;;;24.50;44.10;;;;;;5107710;27;45521;-68
2023/10/12 10:01:16;;;;;;;3.03;2.00;;;24.60;44.10;;;;;;5107939;27;45238;-68
2023/10/12 10:03:48;;;;;;;3.47;2.10;;;24.70;44.10;;;;;;5107965;27;45418;-68
2023/10/12 10:06:31;;;;;;;3.10;2.20;;;24.70;43.90;;;;;;5107682;27;45370;-68
2023/10/12 10:11:40;;;;;;;4.68;2.47;;;24.80;43.80;;;;;;5105598;27;45410;-68
2023/10/12 10:14:09;;;;;;;3.80;2.35;;;24.80;43.60;;;;;;5107440;27;45372;-68
2023/10/12 10:16:46;;;;;;;3.22;2.40;;;24.90;43.60;;;;;;5107006;27;45122;-68
2023/10/12 10:19:16;;;;;;;4.28;2.22;;;24.90;43.50;;;;;;5107345;27;45500;-68
2023/10/12 10:21:49;;;;;;;3.17;2.25;;;25.00;43.50;;;;;;5107461;27;45453;-68
2023/10/12 10:24:19;;;;;;;5.25;2.45;;;25.00;43.40;;;;;;5107838;27;45267;-68
2023/10/12 10:26:47;;;;;;;2.95;2.20;;;25.00;43.30;;;;;;5107590;27;45586;-69
2023/10/12 10:29:18;;;;;;;2.72;2.13;;;25.10;43.30;;;;;;5107199;27;46663;-69
2023/10/12 10:31:46;;;;;;;3.75;2.30;;;25.10;43.40;;;;;;5107167;27;45519;-68
2023/10/12 10:34:23;;;;;;;3.53;2.25;;;25.10;43.30;;;;;;5107504;27;45205;-68
2023/10/12 10:36:52;;;;;;;2.42;2.15;;;25.20;43.20;;;;;;5107746;27;45315;-69
2023/10/12 10:39:29;;;;;;;3.65;2.33;;;25.30;43.70;;;;;;5107586;27;47366;-68
2023/10/12 10:42:00;;;;;;;3.30;2.20;;;25.40;43.00;;;;;;5107366;27;45133;-69
2023/10/12 10:44:27;;;;;;;3.03;2.15;;;25.40;42.80;;;;;;5124823;27;45513;-68
2023/10/12 10:46:57;;;;;;;3.08;2.33;;;25.50;42.80;;;;;;5127701;27;45513;-69
2023/10/12 10:49:30;;;;;;;4.82;2.58;;;25.60;42.80;;;;;;5127854;27;46708;-70
2023/10/12 10:52:13;;;;;;;2.80;2.50;;;25.70;42.70;;;;;;5128035;27;45212;-69
2023/10/12 10:54:51;;;;;;;6.68;2.65;;;25.70;42.80;;;;;;5124505;27;45396;-68
2023/10/12 10:57:24;;;;;;;5.65;3.25;;;25.80;42.80;;;;;;5118131;27;45468;-68
2023/10/12 10:59:51;;;;;;;4.78;2.95;;;25.90;42.60;;;;;;5113157;27;45478;-69
2023/10/12 11:02:18;;;;;;;5.32;2.90;;;26.00;42.70;;;;;;5116772;27;45396;-67
2023/10/12 11:04:47;;;;;;;9.32;2.70;;;26.00;42.70;;;;;;5124752;27;45374;-69
2023/10/12 11:07:17;;;;;;;6.20;3.10;;;26.10;42.50;;;;;;5119844;27;45477;-69
2023/10/12 11:10:05;;;;;;;5.60;3.20;;;26.20;42.20;;;;;;5106754;27;45513;-68
2023/10/12 11:12:32;;;;;;;5.30;3.30;;;26.30;42.00;;;;;;5106828;27;46216;-68
2023/10/12 11:15:00;;;;;;;8.68;4.10;;;26.40;41.80;;;;;;5107022;27;45377;-70
2023/10/12 11:17:27;;;;;;;5.13;3.40;;;26.50;41.60;;;;;;5108030;27;45184;-69
2023/10/12 11:19:57;;;;;;;5.53;3.42;;;26.50;41.40;;;;;;5127089;27;45788;-70
2023/10/12 11:22:24;;;;;;;5.63;3.33;;;26.60;41.30;;;;;;5121760;27;45213;-70
2023/10/12 11:24:53;;;;;;;6.50;3.38;;;26.70;41.10;;;;;;5120950;27;45346;-71
2023/10/12 11:27:31;;;;;;;4.18;3.08;;;26.80;40.50;;;;;;5129303;27;45289;-69
2023/10/12 11:30:00;;;;;;;5.68;3.30;;;26.80;40.20;;;;;;5130661;27;46249;-69
2023/10/12 11:32:28;;;;;;;5.65;3.20;;;26.90;40.10;;;;;;5125094;27;45309;-70
2023/10/12 11:34:59;;;;;;;6.10;2.92;;;27.00;40.10;;;;;;5121058;27;45420;-70
2023/10/12 11:37:27;;;;;;;5.43;3.40;;;27.10;39.90;;;;;;5124994;27;45630;-71
2023/10/12 11:39:54;;;;;;;5.32;3.13;;;27.20;39.60;;;;;;5110000;27;46548;-69
2023/10/12 11:42:21;;;;;;;3.50;2.63;;;27.20;39.20;;;;;;5120479;27;45449;-69
2023/10/12 11:44:51;;;;;;;5.40;3.28;;;27.30;39.30;;;;;;5121457;27;45361;-69
2023/10/12 11:47:37;;;;;;;10.82;4.07;;;27.40;39.30;;;;;;5125442;27;45384;-69
2023/10/12 11:50:09;;;;;;;5.85;2.92;;;27.40;39.00;;;;;;5118875;27;45464;-69
2023/10/12 11:52:37;;;;;;;3.78;2.75;;;27.50;38.40;;;;;;5130254;27;45252;-70
2023/10/12 11:55:06;;;;;;;6.40;3.08;;;27.60;38.40;;;;;;5128858;27;45380;-70
2023/10/12 11:57:33;;;;;;;9.98;3.35;;;27.70;38.30;;;;;;5120185;27;45457;-68
2023/10/12 12:00:07;;;;;;;7.40;2.92;;;27.70;38.40;;;;;;5127000;27;45267;-69
2023/10/12 12:02:35;;;;;;;6.57;2.97;;;27.70;38.50;;;;;;5130111;27;45345;-69
2023/10/12 12:05:04;;;;;;;7.78;2.95;;;27.60;38.60;;;;;;5127729;27;45450;-68
2023/10/12 12:07:33;;;;;;;4.90;3.28;;;27.50;38.60;;;;;;5109752;27;45390;-70
2023/10/12 12:10:03;;;;;;;5.07;3.08;;;27.50;38.70;;;;;;5128765;27;45446;-69
2023/10/12 12:12:30;;;;;;;3.83;2.50;;;27.40;38.80;;;;;;5119801;27;45302;-69
2023/10/12 12:14:57;;;;;;;5.38;2.55;;;27.30;38.70;;;;;;5109278;27;45292;-70
2023/10/12 12:17:26;;;;;;;4.95;3.47;;;27.30;38.90;;;;;;5124189;27;45564;-69
2023/10/12 12:19:53;;;;;;;5.03;3.08;;;27.20;38.90;;;;;;5128175;27;46290;-70
2023/10/12 12:22:22;;;;;;;4.47;2.50;;;27.20;38.90;;;;;;5129106;27;45353;-69
2023/10/12 12:24:50;;;;;;;3.90;2.75;;;27.10;39.00;;;;;;5127142;27;45321;-69
2023/10/12 12:27:37;;;;;;;5.88;2.75;;;27.10;38.90;;;;;;5123652;27;45263;-69
2023/10/12 12:30:08;;;;;;;5.43;3.10;;;27.10;38.80;;;;;;5118160;27;45268;-69
2023/10/12 12:32:37;;;;;;;3.38;2.58;;;27.10;38.80;;;;;;5111228;27;45395;-69
2023/10/12 12:35:06;;;;;;;3.80;2.40;;;27.10;38.70;;;;;;5111554;27;45245;-70
2023/10/12 12:37:37;;;;;;;6.72;2.70;;;27.00;38.80;;;;;;5125828;27;45414;-70
2023/10/12 12:40:27;;;;;;;8.07;2.75;;;27.00;38.90;;;;;;5122389;27;46625;-71
2023/10/12 12:42:54;;;;;;;5.75;2.60;;;27.00;38.70;;;;;;5122810;27;45488;-70
2023/10/12 12:45:21;;;;;;;5.90;2.90;;;27.00;38.80;;;;;;5121174;27;45317;-70
2023/10/12 12:47:48;;;;;;;4.03;2.78;;;27.00;38.90;;;;;;5127162;27;45420;-69
2023/10/12 12:50:15;;;;;;;6.93;2.22;;;27.00;39.00;;;;;;5125487;27;46411;-69
2023/10/12 12:52:43;;;;;;;6.00;3.00;;;26.90;38.80;;;;;;5128056;27;45389;-70
2023/10/12 12:55:11;;;;;;;3.67;2.50;;;26.90;38.90;;;;;;5126241;27;45337;-69
2023/10/12 12:57:38;;;;;;;4.20;2.70;;;26.90;38.90;;;;;;5120280;27;45458;-70
2023/10/12 13:00:08;;;;;;;7.45;2.92;;;26.90;39.00;;;;;;5119484;27;46379;-69
2023/10/12 13:02:36;;;;;;;9.40;2.65;;;26.90;38.90;;;;;;5119515;27;45353;-69
2023/10/12 13:05:04;;;;;;;3.90;2.80;;;26.90;38.70;;;;;;5122099;27;45376;-68
2023/10/12 13:07:31;;;;;;;4.30;2.60;;;26.90;38.30;;;;;;5124210;27;45492;-68
2023/10/12 13:09:58;;;;;;;3.60;2.55;;;26.90;38.10;;;;;;5127453;27;47319;-70
2023/10/12 13:12:31;;;;;;;3.90;2.95;;;26.90;38.10;;;;;;5125612;27;45437;-69
2023/10/12 13:15:00;;;;;;;3.63;2.13;;;26.90;37.90;;;;;;5126318;27;45368;-69
2023/10/12 13:17:29;;;;;;;7.05;2.90;;;26.90;37.50;;;;;;5120065;27;45326;-69
2023/10/12 13:19:58;;;;;;;6.93;2.53;;;26.90;37.40;;;;;;5128892;27;46843;-69
2023/10/12 13:22:25;;;;;;;5.00;2.42;;;26.90;37.30;;;;;;5128427;27;45214;-69
2023/10/12 13:24:56;;;;;;;7.88;2.80;;;26.90;37.10;;;;;;5128809;27;45244;-69
2023/10/12 13:27:24;;;;;;;6.05;2.47;;;26.90;37.10;;;;;;5126768;27;45341;-70
2023/10/12 13:29:55;;;;;;;3.75;2.47;;;26.90;36.80;;;;;;5118306;27;45354;-71
2023/10/12 13:32:21;;;;;;;4.70;2.72;;;27.00;37.00;;;;;;5118379;27;45426;-68
2023/10/12 13:34:48;;;;;;;3.78;2.88;;;27.00;36.50;;;;;;5118181;27;45354;-68
2023/10/12 13:37:15;;;;;;;5.30;2.38;;;27.20;36.70;;;;;;5124525;27;45537;-69
2023/10/12 13:39:42;;;;;;;6.00;2.42;;;27.20;36.60;;;;;;5120661;27;46261;-68
2023/10/12 13:42:11;;;;;;;7.03;2.60;;;27.20;36.20;;;;;;5122001;27;45432;-67
2023/10/12 13:44:39;;;;;;;5.53;2.38;;;27.30;35.70;;;;;;5118949;27;45771;-70
2023/10/12 13:47:07;;;;;;;4.18;2.53;;;27.30;35.30;;;;;;5122049;27;45382;-72